Terminal Aerodrome Forecast
Issued by NWS Newport/Morehead City, NC

Home | Current Version | Previous Version | Graphics & Text | Print | Product List | Glossary On
Versions: 1 2 3 4 5 6 7 8 9 10 11 12 13 14 15
613
FTUS42 KMHX 220540
TAFEWN
TAF
KEWN 220540Z 2206/2306 22004KT P6SM BKN130
     FM220900 22003KT P6SM BKN027
     FM221000 22003KT P6SM BKN009
      TEMPO 2210/2212 2SM BR BKN005
     FM221200 VRB04KT P6SM BKN060=

USA.gov is the U.S. government's official web portal to all federal, state and local government web resources and services.